Grizzly Air Cargo 5376


PAKN
King Salmon Airport
King Salmon, Alaska, US
PADL
Dillingham Airport
Dillingham, Alaska, US

Activity Log

Date Flight Route Aircraft Duration
11/29/2020 GRZ5376 AKN V453 DLG SF34 0h 49m

Route Details

Aircraft Information
Primary: Saab 340AF
Backup: Not Available
Route Data
Distance: 73nm
Sched. Duration: 0h 30m
Avg. Duration: 0h 49m (+19m)
Times Flown: 1
Recm'd Route: AKN V453 DLG
Planned Altitude: 12,000ft
Origin Wx: PAKN 230654Z 16015KT 6SM -RA BR OVC027 02/01 A2956 RMK AO2 SLP012 P0007 T00220006
Dest. Wx: PADL 230656Z AUTO 18013KT 10SM FEW006 OVC018 01/00 A2958 RMK AO2 RAE13 SLP020 P0001 T00060000 FZRANO
Notes:

Financial History
Total Freight: 7,395lbs
Average Load: 7,395lbs/flt
Fuel Used: 401lbs
Avg. Fuel Used: 401lbs/flt
Fuel Expense: $481
Avg. Fuel Expense: $481
Avg. Fuel Cost: $1.20/lbs
Total Gross Income: $15,382
Pilot Pay: $229
Total Expenses: $1,713
Total Revenue: $13,075
Average Revenue: $15,381.60